FAWC Weather

FACT METAR/TAF

[source: ADDS]
METAR
FACT 212100Z 26007KT 9999 FEW025 BKN040 14/08 Q1017 NOSIG =
TAF
TAF FACT 211600Z 2118/2224 35018KT 9999 FEW015 BKN020 TEMPO 2118/2120 4000 RA BKN012 BECMG 2120/2122 25012KT TX15/2213Z TN10/2205Z =
SR / SS: 05:15 / 16:19 UTC (FAWC 2017-08-21)

Polls

Flying Interest Is?
 
FacebookMySpaceTwitterDiggDeliciousStumbleuponGoogle BookmarksRedditNewsvineTechnoratiLinkedinMixxRSS Feed